Time;durP1;ratioP1;P1;durP2;ratioP2;P2;SDS_P1;SDS_P2;PMS_P1;PMS_P2;Temp;Humidity;BMP_temperature;BMP_pressure;BME280_temperature;BME280_humidity;BME280_pressure;Samples;Min_cycle;Max_cycle;Signal;HPM_P1;HPM_P2
2021/04/18 00:01:38;;;;;;;3.13;1.30;;;;;;;8.28;80.76;100699.16;5033013;28;20480;-55
2021/04/18 00:04:06;;;;;;;0.30;0.20;;;;;;;8.33;80.33;100697.31;5032490;28;20463;-54
2021/04/18 00:06:37;;;;;;;0.30;0.20;;;;;;;8.42;79.95;100686.66;5029169;28;20474;-55
2021/04/18 00:09:05;;;;;;;0.30;0.20;;;;;;;8.40;80.27;100692.88;5044039;28;20472;-54
2021/04/18 00:11:31;;;;;;;0.30;0.20;;;;;;;8.38;79.36;100692.91;5044950;28;21009;-55
2021/04/18 00:13:58;;;;;;;0.30;0.20;;;;;;;8.44;78.23;100692.81;5040440;28;20450;-55
2021/04/18 00:16:25;;;;;;;0.30;0.20;;;;;;;8.47;78.01;100690.09;5038205;28;20440;-55
2021/04/18 00:18:52;;;;;;;0.30;0.20;;;;;;;8.82;73.17;100686.97;5042778;28;20472;-54
2021/04/18 00:21:18;;;;;;;0.30;0.20;;;;;;;8.74;71.57;100685.31;5045121;28;20570;-54
2021/04/18 00:23:44;;;;;;;0.30;0.20;;;;;;;8.74;71.37;100683.53;5040605;28;20462;-54
2021/04/18 00:26:10;;;;;;;0.30;0.20;;;;;;;8.76;71.73;100683.50;5038386;28;20451;-54
2021/04/18 00:28:37;;;;;;;1.33;1.03;;;;;;;8.62;72.92;100681.06;5042215;28;20557;-55
2021/04/18 00:31:03;;;;;;;0.30;0.20;;;;;;;8.61;72.25;100685.50;5044750;28;20790;-54
2021/04/18 00:33:29;;;;;;;0.30;0.20;;;;;;;8.67;71.71;100666.00;5027020;28;20453;-55
2021/04/18 00:35:56;;;;;;;0.30;0.20;;;;;;;8.65;71.67;100666.91;5041314;28;20558;-55
2021/04/18 00:38:22;;;;;;;0.30;0.20;;;;;;;8.61;71.21;100666.94;5040985;28;20489;-55
2021/04/18 00:40:48;;;;;;;0.30;0.20;;;;;;;8.72;71.27;100669.44;5037999;28;20452;-55
2021/04/18 00:43:14;;;;;;;0.30;0.20;;;;;;;8.76;71.05;100662.31;5042062;28;20495;-55
2021/04/18 00:45:40;;;;;;;0.30;0.20;;;;;;;8.60;71.66;100659.88;5044722;28;20451;-54
2021/04/18 00:48:08;;;;;;;0.30;0.20;;;;;;;8.75;72.14;100660.56;5040662;28;20475;-55
2021/04/18 00:50:36;;;;;;;0.30;0.20;;;;;;;8.80;71.72;100656.97;5036737;28;20504;-55
2021/04/18 00:53:05;;;;;;;0.30;0.20;;;;;;;8.77;71.33;100650.81;5041562;28;20447;-55
2021/04/18 00:55:33;;;;;;;0.30;0.20;;;;;;;8.74;71.44;100653.50;5044816;28;20447;-54
2021/04/18 00:58:00;;;;;;;0.30;0.20;;;;;;;8.69;71.87;100647.41;5041941;28;20476;-57
2021/04/18 01:00:26;;;;;;;0.30;0.20;;;;;;;8.78;71.88;100644.63;5037968;28;20447;-57
2021/04/18 01:02:53;;;;;;;0.30;0.20;;;;;;;8.90;71.09;100641.75;5040562;28;20538;-57
2021/04/18 01:05:20;;;;;;;0.40;0.40;;;;;;;8.91;70.76;100648.84;5044897;28;20447;-58
2021/04/18 01:07:47;;;;;;;0.30;0.17;;;;;;;8.54;72.63;100648.53;5042652;28;20547;-54
2021/04/18 01:10:15;;;;;;;0.30;0.20;;;;;;;8.45;73.75;100653.94;5041361;28;20869;-55
2021/04/18 01:12:41;;;;;;;0.30;0.10;;;;;;;8.42;73.92;100651.34;5043369;28;20447;-55
2021/04/18 01:15:10;;;;;;;0.30;0.20;;;;;;;8.40;73.60;100646.06;5048169;28;20498;-55
2021/04/18 01:17:37;;;;;;;0.30;0.20;;;;;;;8.36;74.36;100647.03;5046042;28;20478;-54
2021/04/18 01:20:05;;;;;;;0.30;0.20;;;;;;;8.27;74.70;100647.97;5040916;28;20854;-55
2021/04/18 01:22:32;;;;;;;0.30;0.20;;;;;;;8.38;74.25;100642.56;5042808;28;20495;-55
2021/04/18 01:24:58;;;;;;;0.30;0.20;;;;;;;8.24;74.98;100636.56;5047885;28;20463;-55
2021/04/18 01:27:24;;;;;;;0.30;0.20;;;;;;;8.19;75.39;100644.53;5046509;28;20827;-55
2021/04/18 01:29:51;;;;;;;0.83;0.83;;;;;;;8.41;74.25;100639.00;5040009;28;20442;-55
2021/04/18 01:32:20;;;;;;;0.30;0.20;;;;;;;8.25;75.72;100641.81;5042684;28;20455;-55
2021/04/18 01:34:47;;;;;;;0.30;0.20;;;;;;;8.11;75.67;100645.56;5024136;28;20462;-55
2021/04/18 01:37:16;;;;;;;0.30;0.20;;;;;;;8.28;74.43;100643.56;5046787;28;20863;-55
2021/04/18 01:39:43;;;;;;;0.30;0.20;;;;;;;7.88;75.48;100633.47;5040861;28;20455;-55
2021/04/18 01:42:10;;;;;;;0.33;0.23;;;;;;;7.89;75.95;100640.50;5040726;28;20569;-55
2021/04/18 01:44:37;;;;;;;0.30;0.20;;;;;;;7.69;77.12;100637.25;5040682;28;20455;-55
2021/04/18 01:47:05;;;;;;;0.30;0.20;;;;;;;7.62;77.63;100640.81;5034292;28;20455;-56
2021/04/18 01:49:31;;;;;;;0.30;0.20;;;;;;;7.69;76.75;100639.88;5046795;28;20466;-57
2021/04/18 01:51:58;;;;;;;0.30;0.17;;;;;;;7.77;75.65;100640.66;5040333;28;20948;-55
2021/04/18 01:54:24;;;;;;;0.30;0.20;;;;;;;7.77;75.54;100630.06;5046634;28;20501;-55
2021/04/18 01:56:50;;;;;;;0.30;0.20;;;;;;;8.10;74.85;100635.88;5047231;28;20455;-55
2021/04/18 01:59:17;;;;;;;0.30;0.13;;;;;;;8.17;74.01;100635.75;5040742;28;20470;-55
2021/04/18 02:01:43;;;;;;;0.30;0.20;;;;;;;7.77;75.57;100623.91;5035061;28;20483;-55
2021/04/18 02:04:21;;;;;;;0.30;0.20;;;;;;;7.78;75.80;100631.81;5036538;28;20455;-55
2021/04/18 02:06:48;;;;;;;0.30;0.20;;;;;;;7.50;79.02;100630.38;5044032;28;20879;-55
2021/04/18 02:09:14;;;;;;;0.30;0.20;;;;;;;7.32;80.24;100642.03;5044456;28;20479;-55
2021/04/18 02:11:41;;;;;;;0.30;0.20;;;;;;;7.42;79.59;100634.00;5046917;28;20450;-55
2021/04/18 02:14:08;;;;;;;0.30;0.20;;;;;;;7.60;79.88;100632.91;5042867;28;20530;-56
2021/04/18 02:16:35;;;;;;;0.30;0.20;;;;;;;7.65;79.49;100640.78;5040068;28;21003;-55
2021/04/18 02:19:02;;;;;;;0.30;0.20;;;;;;;7.72;79.65;100640.72;5043799;28;20481;-55
2021/04/18 02:21:28;;;;;;;0.30;0.20;;;;;;;7.69;78.65;100639.88;5046294;28;20462;-55
2021/04/18 02:23:54;;;;;;;0.30;0.20;;;;;;;7.63;78.89;100627.56;5042826;28;20939;-56
2021/04/18 02:26:20;;;;;;;0.30;0.20;;;;;;;7.63;79.09;100632.88;5039591;28;20457;-55
2021/04/18 02:28:47;;;;;;;0.30;0.20;;;;;;;7.61;78.72;100633.78;5042286;28;20582;-55
2021/04/18 02:31:14;;;;;;;0.30;0.20;;;;;;;7.65;79.83;100639.00;5046673;28;20485;-55
2021/04/18 02:33:40;;;;;;;0.30;0.20;;;;;;;7.61;79.95;100637.31;5025945;28;20929;-55
2021/04/18 02:36:09;;;;;;;0.30;0.20;;;;;;;7.45;80.40;100633.06;5032529;28;20508;-55
2021/04/18 02:38:35;;;;;;;0.30;0.20;;;;;;;7.49;80.75;100636.56;5041918;28;20464;-55
2021/04/18 02:41:01;;;;;;;0.30;0.20;;;;;;;7.53;80.64;100639.16;5046391;28;20455;-55
2021/04/18 02:43:27;;;;;;;0.30;0.20;;;;;;;7.69;79.67;100637.25;5042986;28;20495;-55
2021/04/18 02:45:53;;;;;;;0.30;0.17;;;;;;;7.77;78.83;100637.13;5039567;28;20458;-55
2021/04/18 02:48:20;;;;;;;0.30;0.20;;;;;;;7.91;78.05;100628.13;5041820;28;20506;-55
2021/04/18 02:50:46;;;;;;;0.30;0.20;;;;;;;7.92;78.86;100640.47;5045151;28;20448;-55
2021/04/18 02:53:12;;;;;;;0.30;0.20;;;;;;;7.95;77.58;100639.56;5042871;28;20500;-55
2021/04/18 02:55:39;;;;;;;0.30;0.20;;;;;;;8.00;77.57;100637.75;5039679;28;20455;-55
2021/04/18 02:58:06;;;;;;;0.30;0.20;;;;;;;7.85;78.02;100630.00;5043096;28;20529;-56
2021/04/18 03:00:32;;;;;;;0.30;0.20;;;;;;;7.95;77.80;100634.28;5039330;28;20440;-55
2021/04/18 03:02:58;;;;;;;0.30;0.20;;;;;;;7.95;79.11;100635.16;5038786;28;20486;-56
2021/04/18 03:05:25;;;;;;;0.30;0.20;;;;;;;7.96;78.23;100643.97;5035349;28;20451;-55
2021/04/18 03:07:51;;;;;;;0.30;0.20;;;;;;;7.99;77.94;100636.00;5047117;28;20474;-55
2021/04/18 03:10:17;;;;;;;0.30;0.20;;;;;;;7.93;79.89;100630.75;5039267;28;20454;-55
2021/04/18 03:12:43;;;;;;;0.30;0.20;;;;;;;7.90;80.36;100638.75;5041476;28;20452;-55
2021/04/18 03:15:10;;;;;;;0.30;0.20;;;;;;;7.89;79.91;100631.69;5045829;28;20448;-55
2021/04/18 03:17:36;;;;;;;0.30;0.20;;;;;;;7.92;80.37;100643.13;5044024;28;20470;-55
2021/04/18 03:20:04;;;;;;;0.30;0.20;;;;;;;7.92;80.82;100637.81;5038903;28;20451;-55
2021/04/18 03:22:30;;;;;;;0.30;0.20;;;;;;;7.92;80.13;100634.28;5040384;28;20495;-55
2021/04/18 03:24:56;;;;;;;0.83;0.83;;;;;;;7.86;80.65;100624.69;5044595;28;20452;-56
2021/04/18 03:27:23;;;;;;;0.30;0.20;;;;;;;7.83;80.59;100632.66;5043957;28;20451;-56
2021/04/18 03:29:49;;;;;;;0.30;0.20;;;;;;;7.93;79.76;100633.41;5038942;28;20451;-55
2021/04/18 03:32:15;;;;;;;0.30;0.20;;;;;;;7.97;81.43;100633.38;5040111;28;20936;-55
2021/04/18 03:34:42;;;;;;;0.30;0.20;;;;;;;7.89;81.45;100624.63;5021101;28;20509;-55
2021/04/18 03:37:08;;;;;;;0.50;0.50;;;;;;;7.92;81.31;100629.88;5043998;28;20538;-55
2021/04/18 03:39:34;;;;;;;0.30;0.17;;;;;;;7.98;80.87;100628.94;5038745;28;20474;-55
2021/04/18 03:42:00;;;;;;;0.30;0.20;;;;;;;7.79;82.37;100622.97;5040158;28;20488;-55
2021/04/18 03:44:26;;;;;;;0.30;0.20;;;;;;;8.09;82.34;100620.88;5044295;28;20452;-55
2021/04/18 03:46:52;;;;;;;0.30;0.20;;;;;;;7.93;82.58;100626.34;5044017;28;20447;-56
2021/04/18 03:49:19;;;;;;;0.30;0.20;;;;;;;7.89;82.63;100629.06;5038323;28;20499;-55
2021/04/18 03:51:47;;;;;;;0.30;0.20;;;;;;;7.88;81.93;100619.38;5039659;28;20448;-56
2021/04/18 03:54:13;;;;;;;0.40;0.37;;;;;;;7.86;82.51;100613.22;5045385;28;20947;-55
2021/04/18 03:56:40;;;;;;;0.30;0.20;;;;;;;7.85;82.12;100612.34;5044701;28;20447;-55
2021/04/18 03:59:06;;;;;;;0.30;0.10;;;;;;;7.92;82.77;100618.41;5038501;28;20471;-55
2021/04/18 04:01:33;;;;;;;0.30;0.20;;;;;;;7.84;84.08;100623.81;5033451;28;20535;-55
2021/04/18 04:03:59;;;;;;;0.30;0.20;;;;;;;7.60;83.66;100626.75;5035911;28;20462;-55
2021/04/18 04:06:26;;;;;;;0.30;0.20;;;;;;;7.71;83.81;100627.50;5040109;28;21046;-55
2021/04/18 04:08:52;;;;;;;0.30;0.20;;;;;;;7.75;82.20;100629.22;5051701;28;20470;-55
2021/04/18 04:11:18;;;;;;;0.30;0.20;;;;;;;7.87;82.87;100622.91;5038725;28;20452;-55
2021/04/18 04:13:44;;;;;;;0.30;0.20;;;;;;;7.89;83.25;100631.69;5037337;28;20500;-55
2021/04/18 04:16:10;;;;;;;0.30;0.20;;;;;;;7.87;83.05;100631.72;5038474;28;20456;-56
2021/04/18 04:18:37;;;;;;;0.30;0.20;;;;;;;7.95;81.63;100635.16;5025621;28;21041;-56
2021/04/18 04:21:03;;;;;;;0.57;0.57;;;;;;;7.90;83.02;100625.50;5038460;28;20988;-55
2021/04/18 04:23:29;;;;;;;0.30;0.20;;;;;;;7.92;81.99;100634.28;5044630;28;20491;-55
2021/04/18 04:25:56;;;;;;;0.30;0.20;;;;;;;7.88;83.65;100638.75;5045035;28;20451;-55
2021/04/18 04:28:23;;;;;;;0.30;0.20;;;;;;;7.87;83.90;100644.06;5039022;28;20516;-55
2021/04/18 04:30:53;;;;;;;0.30;0.20;;;;;;;7.91;83.33;100635.19;5038225;28;20464;-55
2021/04/18 04:33:19;;;;;;;0.33;0.33;;;;;;;7.91;83.04;100641.38;5042978;28;20867;-54
2021/04/18 04:35:45;;;;;;;0.30;0.20;;;;;;;7.90;84.22;100638.75;5043985;28;20454;-57
2021/04/18 04:38:11;;;;;;;0.30;0.20;;;;;;;7.90;84.55;100644.91;5039838;28;20474;-57
2021/04/18 04:40:37;;;;;;;0.30;0.20;;;;;;;7.88;85.06;100640.53;5038020;28;20448;-57
2021/04/18 04:43:03;;;;;;;0.33;0.20;;;;;;;7.87;84.58;100644.06;5044783;28;20498;-58
2021/04/18 04:45:30;;;;;;;0.30;0.20;;;;;;;7.83;84.76;100639.72;5048522;28;20541;-57
2021/04/18 04:47:56;;;;;;;0.30;0.20;;;;;;;7.78;85.49;100634.47;5042781;28;20524;-57
2021/04/18 04:50:22;;;;;;;2.20;0.90;;;;;;;7.85;85.01;100637.94;5041911;28;20483;-56
2021/04/18 04:52:56;;;;;;;0.30;0.20;;;;;;;7.87;84.12;100631.72;5047054;28;20516;-56
2021/04/18 04:55:22;;;;;;;0.30;0.20;;;;;;;7.63;85.24;100635.50;5048714;28;20450;-56
2021/04/18 04:57:48;;;;;;;0.30;0.20;;;;;;;7.70;83.79;100634.56;5042893;28;20467;-53
2021/04/18 05:00:15;;;;;;;0.30;0.20;;;;;;;7.85;85.10;100638.81;5039073;28;20944;-53
2021/04/18 05:02:41;;;;;;;0.30;0.20;;;;;;;7.82;85.32;100640.63;5043415;28;20532;-53
2021/04/18 05:05:08;;;;;;;0.30;0.20;;;;;;;8.16;84.53;100641.94;5033229;28;20451;-56
2021/04/18 05:07:34;;;;;;;0.30;0.20;;;;;;;8.13;84.21;100643.75;5050031;28;20470;-56
2021/04/18 05:10:00;;;;;;;0.30;0.20;;;;;;;7.95;83.54;100645.75;5041686;28;20525;-53
2021/04/18 05:12:26;;;;;;;0.30;0.20;;;;;;;8.01;83.78;100648.31;5044873;28;20444;-53
2021/04/18 05:14:52;;;;;;;0.30;0.20;;;;;;;8.05;83.88;100654.44;5048312;28;20944;-53
2021/04/18 05:17:19;;;;;;;0.30;0.17;;;;;;;8.02;83.58;100654.47;5044547;28;20505;-53
2021/04/18 05:19:45;;;;;;;0.30;0.20;;;;;;;8.10;82.79;100654.41;5041612;28;20469;-54
2021/04/18 05:22:11;;;;;;;0.30;0.20;;;;;;;8.08;84.80;100664.09;5045750;28;20496;-53
2021/04/18 05:24:37;;;;;;;0.30;0.20;;;;;;;8.01;86.98;100661.53;5048607;28;20455;-57
2021/04/18 05:27:04;;;;;;;0.30;0.20;;;;;;;8.03;86.39;100664.16;5044794;28;20477;-56
2021/04/18 05:29:30;;;;;;;0.30;0.20;;;;;;;7.90;87.80;100663.44;5041237;28;20556;-56
2021/04/18 05:31:56;;;;;;;0.30;0.20;;;;;;;8.00;88.85;100666.84;5045195;28;20462;-55
2021/04/18 05:34:23;;;;;;;0.30;0.20;;;;;;;7.96;90.63;100662.50;5026182;28;20448;-57
2021/04/18 05:36:49;;;;;;;0.30;0.20;;;;;;;7.89;88.71;100668.75;5044869;28;20820;-53
2021/04/18 05:39:15;;;;;;;0.30;0.20;;;;;;;8.01;91.92;100669.47;5040640;28;20471;-53
2021/04/18 05:41:41;;;;;;;0.30;0.20;;;;;;;8.03;92.91;100669.47;5043236;28;20863;-53
2021/04/18 05:44:14;;;;;;;0.30;0.30;;;;;;;7.89;94.82;100677.56;5047524;28;20518;-54
2021/04/18 05:46:42;;;;;;;0.30;0.20;;;;;;;7.83;95.26;100677.66;5045237;28;21053;-54
2021/04/18 05:49:08;;;;;;;0.30;0.20;;;;;;;7.67;97.07;100681.31;5040936;28;20470;-54
2021/04/18 05:51:35;;;;;;;0.30;0.20;;;;;;;7.59;94.82;100680.53;5043375;28;20509;-54
2021/04/18 05:54:01;;;;;;;0.30;0.20;;;;;;;7.76;97.08;100670.66;5046371;28;20557;-54
2021/04/18 05:56:27;;;;;;;0.30;0.20;;;;;;;7.91;98.08;100672.25;5045351;28;20936;-54
2021/04/18 05:58:53;;;;;;;0.30;0.20;;;;;;;7.90;99.43;100670.50;5040439;28;21006;-54
2021/04/18 06:01:23;;;;;;;0.30;0.30;;;;;;;7.89;100.00;100669.63;5037484;28;20493;-54
2021/04/18 06:03:51;;;;;;;0.30;0.20;;;;;;;7.84;100.00;100673.22;5038368;28;20498;-56
2021/04/18 06:06:18;;;;;;;0.30;0.20;;;;;;;7.83;100.00;100675.00;5042709;28;20452;-53
2021/04/18 06:08:44;;;;;;;0.30;0.17;;;;;;;7.88;100.00;100664.34;5047269;28;20586;-53
2021/04/18 06:11:10;;;;;;;0.30;0.20;;;;;;;7.93;100.00;100667.81;5045272;28;20458;-56
2021/04/18 06:13:36;;;;;;;0.30;0.20;;;;;;;7.97;100.00;100661.59;5040748;28;20454;-56
2021/04/18 06:16:04;;;;;;;0.30;0.20;;;;;;;8.10;100.00;100667.63;5041287;28;20448;-56
2021/04/18 06:18:31;;;;;;;0.40;0.40;;;;;;;8.07;100.00;100670.28;5047281;28;20550;-56
2021/04/18 06:20:57;;;;;;;0.40;0.30;;;;;;;8.25;100.00;100665.66;5046756;28;20508;-56
2021/04/18 06:23:23;;;;;;;0.30;0.20;;;;;;;8.26;99.53;100671.84;5040060;28;20491;-56
2021/04/18 06:25:49;;;;;;;0.63;0.63;;;;;;;8.30;99.55;100671.75;5040840;28;20944;-56
2021/04/18 06:28:16;;;;;;;0.40;0.30;;;;;;;8.19;100.00;100676.31;5047038;28;20479;-56
2021/04/18 06:30:42;;;;;;;0.30;0.20;;;;;;;7.91;100.00;100677.53;5046313;28;20455;-56
2021/04/18 06:33:09;;;;;;;0.30;0.20;;;;;;;7.72;100.00;100679.53;5031634;28;20444;-56
2021/04/18 06:35:35;;;;;;;0.30;0.20;;;;;;;7.76;100.00;100685.66;5026251;28;20455;-56
2021/04/18 06:38:01;;;;;;;0.30;0.20;;;;;;;7.79;100.00;100686.50;5046567;28;20471;-54
2021/04/18 06:40:27;;;;;;;1.10;0.87;;;;;;;7.71;100.00;100683.94;5033437;28;20940;-53
2021/04/18 06:42:55;;;;;;;0.30;0.20;;;;;;;7.67;100.00;100690.13;5047059;28;20545;-53
2021/04/18 06:45:21;;;;;;;0.30;0.20;;;;;;;7.83;100.00;100690.88;5046025;28;20847;-56
2021/04/18 06:47:47;;;;;;;0.30;0.20;;;;;;;8.00;100.00;100688.03;5039840;28;20520;-56
2021/04/18 06:50:14;;;;;;;0.30;0.20;;;;;;;8.36;100.00;100694.69;5040631;28;20475;-56
2021/04/18 06:52:40;;;;;;;0.30;0.20;;;;;;;8.25;100.00;100696.56;5046650;28;20464;-56
2021/04/18 06:55:08;;;;;;;4.23;0.80;;;;;;;8.15;100.00;100685.19;5045305;28;20474;-57
2021/04/18 06:57:36;;;;;;;0.30;0.20;;;;;;;8.05;100.00;100694.13;5026573;28;20471;-56
2021/04/18 07:00:04;;;;;;;0.30;0.20;;;;;;;8.07;100.00;100696.75;5039537;28;20475;-56
2021/04/18 07:02:33;;;;;;;0.30;0.20;;;;;;;8.03;100.00;100694.16;5040535;28;20511;-56
2021/04/18 07:05:02;;;;;;;0.30;0.20;;;;;;;8.01;100.00;100682.72;5029987;28;20459;-57
2021/04/18 07:07:31;;;;;;;0.30;0.20;;;;;;;8.08;100.00;100680.84;5046857;28;20857;-56
2021/04/18 07:09:59;;;;;;;0.30;0.20;;;;;;;8.09;100.00;100685.28;5039374;28;20448;-56
2021/04/18 07:12:30;;;;;;;0.30;0.20;;;;;;;8.35;100.00;100681.44;5042910;28;20458;-57
2021/04/18 07:14:57;;;;;;;0.30;0.20;;;;;;;8.41;100.00;100687.56;5045989;28;20474;-56
2021/04/18 07:17:24;;;;;;;0.30;0.20;;;;;;;8.33;100.00;100687.59;5042809;28;20513;-56
2021/04/18 07:20:12;;;;;;;0.30;0.20;;;;;;;8.35;100.00;100682.31;5038980;28;20864;-56
2021/04/18 07:22:38;;;;;;;0.30;0.10;;;;;;;8.59;100.00;100673.16;5039710;28;21003;-56
2021/04/18 07:25:06;;;;;;;0.30;0.20;;;;;;;8.57;100.00;100673.19;5052393;28;20481;-56
2021/04/18 07:27:49;;;;;;;0.30;0.20;;;;;;;8.49;100.00;100671.53;5039571;28;20928;-54
2021/04/18 07:30:19;;;;;;;0.30;0.20;;;;;;;8.64;100.00;100674.00;5070449;23;20486;-51
2021/04/18 07:32:45;;;;;;;0.30;0.20;;;;;;;8.86;98.30;100674.53;5071595;28;20468;-52
2021/04/18 07:35:39;;;;;;;0.30;0.20;;;;;;;8.70;100.00;100673.88;5062061;28;20454;-51
2021/04/18 07:38:28;;;;;;;0.30;0.20;;;;;;;8.69;100.00;100672.13;5072414;28;20524;-52
2021/04/18 07:40:57;;;;;;;0.30;0.20;;;;;;;8.67;100.00;100675.72;5052408;28;20483;-51
2021/04/18 07:43:24;;;;;;;0.30;0.20;;;;;;;8.66;100.00;100672.19;5052565;28;20493;-52
2021/04/18 07:45:51;;;;;;;0.53;0.53;;;;;;;8.67;100.00;100665.13;5052328;28;20447;-51
2021/04/18 07:48:19;;;;;;;0.30;0.20;;;;;;;8.67;100.00;100666.00;5028242;28;20459;-51
2021/04/18 07:50:48;;;;;;;0.30;0.20;;;;;;;8.72;100.00;100657.97;5045973;28;20458;-51
2021/04/18 07:53:18;;;;;;;0.30;0.20;;;;;;;8.84;100.00;100661.31;5052192;28;20453;-52
2021/04/18 07:55:46;;;;;;;0.30;0.17;;;;;;;8.76;100.00;100664.97;5052439;28;20469;-52
2021/04/18 07:58:13;;;;;;;0.30;0.20;;;;;;;8.75;100.00;100661.44;5052291;28;20501;-52
2021/04/18 08:00:39;;;;;;;0.30;0.20;;;;;;;8.76;100.00;100663.19;5040953;28;20512;-52
2021/04/18 08:03:06;;;;;;;0.30;0.20;;;;;;;8.75;100.00;100668.50;5040833;28;20907;-51
2021/04/18 08:05:34;;;;;;;0.30;0.20;;;;;;;8.76;100.00;100663.19;5051381;28;20569;-52
2021/04/18 08:08:05;;;;;;;0.30;0.20;;;;;;;8.73;100.00;100668.53;5046777;28;21021;-51
2021/04/18 08:10:37;;;;;;;0.30;0.10;;;;;;;8.59;100.00;100668.75;5050840;28;20832;-52
2021/04/18 08:13:20;;;;;;;0.30;0.20;;;;;;;8.64;100.00;100665.16;5052193;28;20443;-52
2021/04/18 08:15:52;;;;;;;0.30;0.20;;;;;;;9.06;100.00;100668.94;5052175;28;20457;-51
2021/04/18 08:18:41;;;;;;;0.30;0.20;;;;;;;8.85;100.00;100667.47;5051796;28;20446;-51
2021/04/18 08:21:25;;;;;;;0.30;0.20;;;;;;;8.83;100.00;100678.09;5056159;28;20446;-52
2021/04/18 08:23:51;;;;;;;0.30;0.20;;;;;;;8.85;100.00;100670.13;5055997;28;20569;-51
2021/04/18 08:26:20;;;;;;;0.30;0.20;;;;;;;8.84;100.00;100679.84;5055980;28;20443;-52
2021/04/18 08:28:52;;;;;;;0.30;0.20;;;;;;;8.80;100.00;100682.59;5055689;28;20479;-51
2021/04/18 08:31:23;;;;;;;0.30;0.20;;;;;;;8.90;100.00;100673.56;5055911;28;20859;-51
2021/04/18 08:33:55;;;;;;;0.30;0.20;;;;;;;8.90;100.00;100685.06;5046157;28;20448;-51
2021/04/18 08:36:27;;;;;;;0.30;0.20;;;;;;;9.07;100.00;100676.84;5054747;28;20951;-51
2021/04/18 08:39:00;;;;;;;0.30;0.20;;;;;;;9.08;100.00;100680.38;5055904;28;20476;-52
2021/04/18 08:41:43;;;;;;;1.73;1.70;;;;;;;9.06;100.00;100687.50;5055992;28;20474;-52
2021/04/18 08:44:26;;;;;;;0.30;0.20;;;;;;;9.00;100.00;100679.63;5055613;28;20521;-51
2021/04/18 08:47:10;;;;;;;0.50;0.40;;;;;;;8.94;100.00;100677.06;5055724;28;20447;-52
2021/04/18 08:49:46;;;;;;;0.30;0.20;;;;;;;8.92;100.00;100687.72;5031377;28;20478;-52
2021/04/18 08:52:27;;;;;;;0.30;0.20;;;;;;;8.84;100.00;100679.84;5055510;28;20519;-51
2021/04/18 08:54:58;;;;;;;0.30;0.20;;;;;;;8.97;100.00;100683.19;5055648;28;20446;-52
2021/04/18 08:57:27;;;;;;;0.30;0.20;;;;;;;9.01;100.00;100684.91;5055543;28;20446;-52
2021/04/18 08:59:59;;;;;;;0.30;0.20;;;;;;;8.97;100.00;100683.19;5050946;28;20479;-52
2021/04/18 09:02:28;;;;;;;0.30;0.20;;;;;;;8.90;100.00;100689.47;5044613;28;20536;-52
2021/04/18 09:04:57;;;;;;;0.30;0.20;;;;;;;8.85;100.00;100688.69;5050473;28;20916;-52
2021/04/18 09:07:29;;;;;;;0.30;0.20;;;;;;;8.88;100.00;100691.28;5050103;28;20451;-51
2021/04/18 09:10:07;;;;;;;0.30;0.20;;;;;;;8.83;100.00;100688.72;5055149;28;20901;-51
2021/04/18 09:12:34;;;;;;;0.30;0.20;;;;;;;8.91;100.00;100693.91;5053936;28;20453;-52
2021/04/18 09:15:01;;;;;;;0.40;0.30;;;;;;;9.05;100.00;100685.75;5055064;28;20911;-51
2021/04/18 09:17:30;;;;;;;0.70;0.67;;;;;;;9.09;100.00;100685.66;5055189;28;20447;-52
2021/04/18 09:20:16;;;;;;;0.30;0.20;;;;;;;9.06;100.00;100691.03;5054968;28;20466;-52
2021/04/18 09:22:43;;;;;;;0.30;0.20;;;;;;;9.33;100.00;100686.16;5054872;28;20548;-52
2021/04/18 09:25:13;;;;;;;0.30;0.20;;;;;;;9.27;100.00;100692.44;5055063;28;20453;-51
2021/04/18 09:27:42;;;;;;;0.30;0.20;;;;;;;9.34;100.00;100691.44;5053904;28;20451;-52
2021/04/18 09:30:16;;;;;;;1.00;0.97;;;;;;;9.37;100.00;100687.84;5054304;28;20524;-52
2021/04/18 09:32:45;;;;;;;0.30;0.20;;;;;;;9.68;100.00;100685.50;5054209;28;20447;-52
2021/04/18 09:35:13;;;;;;;0.30;0.20;;;;;;;9.43;100.00;100691.25;5043984;28;20458;-52
2021/04/18 09:37:42;;;;;;;0.40;0.20;;;;;;;9.66;99.92;100682.91;5054717;28;20461;-52
2021/04/18 09:40:15;;;;;;;0.30;0.20;;;;;;;9.97;98.35;100691.13;5054470;28;21056;-52
2021/04/18 09:42:45;;;;;;;0.30;0.20;;;;;;;9.69;100.00;100687.25;5054421;28;20486;-52
2021/04/18 09:45:29;;;;;;;0.30;0.20;;;;;;;9.83;100.00;100685.22;5054559;28;20505;-51
2021/04/18 09:48:14;;;;;;;0.30;0.20;;;;;;;10.13;99.70;100693.47;5029219;28;20530;-51
2021/04/18 09:50:41;;;;;;;0.30;0.20;;;;;;;10.23;99.55;100684.47;5053124;28;20469;-52
2021/04/18 09:53:25;;;;;;;0.30;0.20;;;;;;;10.45;98.29;100685.78;5054290;28;20500;-52
2021/04/18 09:56:00;;;;;;;0.30;0.20;;;;;;;10.25;99.58;100677.34;5054293;28;20952;-52
2021/04/18 09:58:41;;;;;;;0.30;0.20;;;;;;;10.55;98.74;100686.41;5054331;28;20827;-52
2021/04/18 10:01:28;;;;;;;0.30;0.20;;;;;;;10.10;97.15;100689.13;5039608;28;20456;-51
2021/04/18 10:03:55;;;;;;;0.30;0.20;;;;;;;10.06;94.62;100684.78;5048727;28;20572;-51
2021/04/18 10:06:23;;;;;;;0.30;0.17;;;;;;;10.06;95.40;100687.44;5049802;28;20452;-51
2021/04/18 10:09:02;;;;;;;0.30;0.17;;;;;;;10.05;97.54;100683.91;5052984;28;20474;-51
2021/04/18 10:11:29;;;;;;;0.30;0.13;;;;;;;10.15;96.53;100681.06;5053780;28;20869;-51
2021/04/18 10:13:57;;;;;;;0.40;0.30;;;;;;;10.10;95.97;100679.38;5053720;28;20453;-52
2021/04/18 10:16:31;;;;;;;0.30;0.20;;;;;;;10.22;97.51;100682.72;5053728;28;20454;-51
2021/04/18 10:19:18;;;;;;;0.30;0.20;;;;;;;10.06;95.99;100682.13;5053666;28;20509;-51
2021/04/18 10:22:00;;;;;;;0.30;0.20;;;;;;;10.09;96.33;100685.59;5053722;28;20443;-52
2021/04/18 10:24:29;;;;;;;0.30;0.30;;;;;;;10.17;97.26;100681.91;5053871;28;20498;-52
2021/04/18 10:26:55;;;;;;;0.30;0.20;;;;;;;10.06;99.67;100692.75;5053910;28;20819;-51
2021/04/18 10:29:21;;;;;;;0.30;0.20;;;;;;;10.23;100.00;100679.16;5053593;28;20486;-52
2021/04/18 10:31:48;;;;;;;0.30;0.20;;;;;;;10.02;100.00;100689.28;5053992;28;20443;-52
2021/04/18 10:34:14;;;;;;;0.30;0.20;;;;;;;10.14;98.71;100681.94;5041049;28;21022;-51
2021/04/18 10:36:40;;;;;;;0.30;0.20;;;;;;;9.99;98.44;100685.78;5053446;28;20949;-52
2021/04/18 10:39:06;;;;;;;0.60;0.60;;;;;;;10.06;99.11;100685.66;5053375;28;20851;-52
2021/04/18 10:41:32;;;;;;;0.30;0.20;;;;;;;10.04;100.00;100691.91;5052508;28;20455;-52
2021/04/18 10:43:59;;;;;;;0.30;0.20;;;;;;;9.96;100.00;100684.09;5053061;28;20490;-52
2021/04/18 10:46:25;;;;;;;0.33;0.30;;;;;;;9.86;100.00;100682.50;5052023;28;20568;-51
2021/04/18 10:48:51;;;;;;;0.40;0.30;;;;;;;9.91;100.00;100682.44;5053356;28;20557;-51
2021/04/18 10:51:18;;;;;;;0.30;0.20;;;;;;;9.66;100.00;100674.94;5053184;28;20542;-52
2021/04/18 10:53:44;;;;;;;0.40;0.30;;;;;;;9.78;100.00;100681.78;5049995;28;20493;-52
2021/04/18 10:56:10;;;;;;;0.30;0.20;;;;;;;9.70;100.00;100671.31;5031398;28;20448;-52
2021/04/18 10:58:36;;;;;;;0.30;0.20;;;;;;;9.57;100.00;100674.22;5046997;28;20524;-52
2021/04/18 11:01:02;;;;;;;0.30;0.20;;;;;;;9.73;100.00;100687.19;5039251;28;20447;-52
2021/04/18 11:03:29;;;;;;;0.30;0.20;;;;;;;9.80;100.00;100672.00;5044224;28;20487;-51
2021/04/18 11:05:55;;;;;;;0.30;0.20;;;;;;;9.85;100.00;100672.78;5041707;28;20455;-52
2021/04/18 11:08:21;;;;;;;0.77;0.77;;;;;;;9.90;100.00;100672.72;5048910;28;20447;-52
2021/04/18 11:10:47;;;;;;;0.30;0.30;;;;;;;9.96;100.00;100668.16;5053472;28;20450;-52
2021/04/18 11:13:13;;;;;;;0.30;0.20;;;;;;;9.63;100.00;100675.00;5052618;28;20859;-52
2021/04/18 11:15:39;;;;;;;0.30;0.20;;;;;;;9.71;100.00;100673.06;5052740;28;20453;-52
2021/04/18 11:18:09;;;;;;;0.30;0.20;;;;;;;9.61;100.00;100676.81;5052881;28;20454;-52
2021/04/18 11:20:36;;;;;;;0.53;0.53;;;;;;;9.74;100.00;100670.38;5052772;28;20554;-52
2021/04/18 11:23:03;;;;;;;0.30;0.20;;;;;;;9.91;100.00;100669.16;5052583;28;20497;-52
2021/04/18 11:25:29;;;;;;;0.30;0.10;;;;;;;9.92;100.00;100660.28;5052621;28;20443;-52
2021/04/18 11:27:55;;;;;;;0.30;0.20;;;;;;;9.93;100.00;100657.59;5052436;28;20943;-51
2021/04/18 11:30:21;;;;;;;0.60;0.60;;;;;;;9.93;100.00;100651.41;5052484;28;20478;-51
2021/04/18 11:32:48;;;;;;;0.30;0.10;;;;;;;9.89;100.00;100655.91;5051319;28;20450;-52
2021/04/18 11:35:14;;;;;;;0.70;0.70;;;;;;;9.80;100.00;100656.09;5042365;28;20457;-52